Terminal Aerodrome Forecast
Issued by NWS Boston, MA

Home | Current Version | Previous Version | Text Only | Print | Product List | Glossary On
Versions: 1 2 3 4 5 6 7 8 9 10 11 12 13 14 15 16 17 18 19 20 21 22
000
FTUS41 KBOX 280528
TAFBDL
TAF
KBDL 280528Z 2806/0112 19005KT P6SM SCT100
     FM281500 00000KT P6SM SCT070
     FM281800 16006KT P6SM SCT070
     FM010400 16006KT 2SM -RA BR OVC008
     FM011000 19006KT 1SM BR VCSH OVC008=

USA.gov is the U.S. government's official web portal to all federal, state and local government web resources and services.